createdAt,value
2023-05-14T00:01:47.751Z,0
2023-05-14T00:08:07.752Z,0
2023-05-14T00:14:30.819Z,0
2023-05-14T00:20:50.867Z,0
2023-05-14T00:27:13.780Z,0
2023-05-14T00:33:33.797Z,0
2023-05-14T00:39:56.777Z,0
2023-05-14T00:46:16.825Z,0
2023-05-14T00:52:39.777Z,0
2023-05-14T00:58:59.759Z,0
2023-05-14T01:05:22.846Z,0
2023-05-14T01:11:42.867Z,0
2023-05-14T01:18:05.970Z,0
2023-05-14T01:24:25.747Z,0
2023-05-14T01:30:48.827Z,0
2023-05-14T01:37:08.738Z,0
2023-05-14T01:43:31.861Z,0
2023-05-14T01:49:51.798Z,0
2023-05-14T01:56:14.901Z,0
2023-05-14T02:02:34.881Z,0
2023-05-14T02:08:57.819Z,0
2023-05-14T02:15:17.770Z,0
2023-05-14T02:21:40.829Z,0
2023-05-14T02:28:00.759Z,0
2023-05-14T02:34:23.828Z,0
2023-05-14T02:40:43.732Z,0
2023-05-14T02:47:06.973Z,0
2023-05-14T02:53:26.759Z,0
2023-05-14T02:59:49.789Z,0
2023-05-14T03:06:09.888Z,0
2023-05-14T03:12:32.813Z,0
2023-05-14T03:28:22.597Z,0
2023-05-14T03:34:42.734Z,0
2023-05-14T03:41:05.835Z,0
2023-05-14T03:47:25.851Z,0
2023-05-14T03:53:48.746Z,0
2023-05-14T04:00:08.855Z,0
2023-05-14T04:06:31.797Z,0
2023-05-14T04:12:51.814Z,5.62
2023-05-14T04:19:14.873Z,5.62
2023-05-14T04:25:34.840Z,5.62
2023-05-14T04:31:57.894Z,5.62
2023-05-14T04:38:17.852Z,11.25
2023-05-14T04:44:40.957Z,11.25
2023-05-14T04:51:00.786Z,11.25
2023-05-14T04:57:23.804Z,11.25
2023-05-14T05:03:43.869Z,11.25
2023-05-14T05:10:06.762Z,16.88
2023-05-14T05:16:26.844Z,16.88
2023-05-14T05:22:49.799Z,16.88
2023-05-14T05:29:09.812Z,16.88
2023-05-14T05:35:32.861Z,22.5
2023-05-14T05:41:52.964Z,22.5
2023-05-14T05:48:15.829Z,22.5
2023-05-14T05:54:35.840Z,22.5
2023-05-14T06:00:58.843Z,28.12
2023-05-14T06:07:18.816Z,28.12
2023-05-14T06:13:41.728Z,33.75
2023-05-14T06:20:01.872Z,33.75
2023-05-14T06:26:24.817Z,33.75
2023-05-14T06:32:44.797Z,39.38
2023-05-14T06:39:07.900Z,33.75
2023-05-14T06:45:27.746Z,33.75
2023-05-14T06:51:50.789Z,28.12
2023-05-14T06:58:10.916Z,22.5
2023-05-14T07:04:33.820Z,22.5
2023-05-14T07:10:53.793Z,33.75
2023-05-14T07:17:16.870Z,39.38
2023-05-14T07:23:36.749Z,39.38
2023-05-14T07:29:59.777Z,39.38
2023-05-14T07:36:19.851Z,45
2023-05-14T07:42:42.752Z,45
2023-05-14T07:49:02.888Z,45
2023-05-14T07:55:25.801Z,45
2023-05-14T08:01:45.824Z,50.62
2023-05-14T08:08:08.803Z,50.62
2023-05-14T08:14:28.794Z,50.62
2023-05-14T08:20:51.807Z,56.25
2023-05-14T08:44:15.319Z,56.25
2023-05-14T08:50:34.741Z,56.25
2023-05-14T08:56:57.781Z,61.88
2023-05-14T09:03:17.787Z,61.88
2023-05-14T09:09:40.804Z,67.5
2023-05-14T09:22:23.785Z,73.12
2023-05-14T09:28:43.881Z,73.12
2023-05-14T09:35:06.787Z,78.75
2023-05-14T09:41:26.784Z,78.75
2023-05-14T09:47:49.855Z,84.38
2023-05-14T09:54:09.925Z,84.38
2023-05-14T10:00:32.805Z,90
2023-05-14T10:06:52.823Z,90
2023-05-14T10:13:15.938Z,95.62
2023-05-14T10:19:35.830Z,67.5
2023-05-14T10:25:58.789Z,123.75
2023-05-14T10:32:18.957Z,50.62
2023-05-14T10:38:41.948Z,67.5
2023-05-14T10:45:01.815Z,56.25
2023-05-14T10:51:25.050Z,95.62
2023-05-14T10:57:44.831Z,118.12
2023-05-14T11:04:07.857Z,95.62
2023-05-14T11:10:27.898Z,101.25
2023-05-14T11:16:50.851Z,135
2023-05-14T11:23:10.874Z,84.38
2023-05-14T11:29:33.885Z,101.25
2023-05-14T11:35:53.849Z,106.88
2023-05-14T11:42:16.799Z,185.62
2023-05-14T11:48:36.806Z,101.25
2023-05-14T11:54:59.953Z,73.12
2023-05-14T12:01:19.972Z,78.75
2023-05-14T12:07:42.877Z,84.38
2023-05-14T12:14:02.809Z,84.38
2023-05-14T12:20:25.952Z,95.62
2023-05-14T12:26:45.987Z,112.5
2023-05-14T12:33:08.864Z,101.25
2023-05-14T12:39:28.734Z,112.5
2023-05-14T12:45:51.782Z,208.12
2023-05-14T12:58:34.776Z,151.88
2023-05-14T13:04:54.890Z,106.88
2023-05-14T13:11:17.957Z,90
2023-05-14T13:17:37.849Z,84.38
2023-05-14T13:24:00.773Z,84.38
2023-05-14T13:30:21.078Z,84.38
2023-05-14T13:36:43.854Z,101.25
2023-05-14T13:59:49.284Z,95.62
2023-05-14T14:06:08.738Z,90
2023-05-14T14:12:31.839Z,101.25
2023-05-14T14:18:51.773Z,151.88
2023-05-14T14:25:14.747Z,191.25
2023-05-14T14:31:34.800Z,196.88
2023-05-14T14:37:57.762Z,185.62
2023-05-14T14:44:17.813Z,174.38
2023-05-14T14:50:40.743Z,101.25
2023-05-14T14:57:00.966Z,140.62
2023-05-14T15:03:24.003Z,157.5
2023-05-14T15:09:44.056Z,151.88
2023-05-14T15:16:06.810Z,157.5
2023-05-14T15:22:26.741Z,163.12
2023-05-14T15:28:49.886Z,73.12
2023-05-14T15:35:09.811Z,50.62
2023-05-14T15:41:32.732Z,56.25
2023-05-14T15:47:52.790Z,73.12
2023-05-14T15:54:15.775Z,78.75
2023-05-14T16:00:35.767Z,78.75
2023-05-14T16:06:58.749Z,95.62
2023-05-14T16:13:18.770Z,95.62
2023-05-14T16:19:41.798Z,78.75
2023-05-14T16:26:01.738Z,191.25
2023-05-14T16:32:24.817Z,90
2023-05-14T16:38:57.132Z,95.62
2023-05-14T16:45:07.741Z,78.75
2023-05-14T16:51:28.013Z,78.75
2023-05-14T16:57:50.722Z,73.12
2023-05-14T17:04:10.774Z,78.75
2023-05-14T17:10:33.756Z,73.12
2023-05-14T17:16:53.744Z,73.12
2023-05-14T17:23:17.050Z,73.12
2023-05-14T17:29:37.075Z,67.5
2023-05-14T17:35:59.740Z,56.25
2023-05-14T17:42:19.759Z,45
2023-05-14T17:48:42.794Z,39.38
2023-05-14T17:55:02.762Z,33.75
2023-05-14T18:01:26.144Z,28.12
2023-05-14T18:07:45.770Z,28.12
2023-05-14T18:14:08.772Z,22.5
2023-05-14T18:20:28.800Z,16.88
2023-05-14T18:26:51.853Z,16.88
2023-05-14T18:33:11.812Z,11.25
2023-05-14T18:39:34.901Z,11.25
2023-05-14T18:45:54.844Z,5.62
2023-05-14T18:52:17.799Z,5.62
2023-05-14T18:58:37.797Z,0
2023-05-14T19:05:00.804Z,0
2023-05-14T19:11:20.783Z,0
2023-05-14T19:27:48.697Z,0
2023-05-14T19:34:08.759Z,0
2023-05-14T19:40:31.831Z,0
2023-05-14T19:46:51.955Z,0
2023-05-14T19:53:14.735Z,0
2023-05-14T19:59:34.829Z,0
2023-05-14T20:05:57.885Z,0
2023-05-14T20:12:17.756Z,0
2023-05-14T20:18:40.769Z,0
2023-05-14T20:25:00.799Z,0
2023-05-14T20:31:23.887Z,0
2023-05-14T20:37:43.728Z,0
2023-05-14T20:44:06.808Z,0
2023-05-14T20:50:26.744Z,0
2023-05-14T20:56:49.737Z,0
2023-05-14T21:03:10.036Z,0
2023-05-14T21:09:32.744Z,0
2023-05-14T21:15:52.795Z,0
2023-05-14T21:22:15.835Z,0
2023-05-14T21:28:35.729Z,0
2023-05-14T21:34:58.799Z,0
2023-05-14T21:41:18.762Z,0
2023-05-14T21:47:41.817Z,0
2023-05-14T21:54:01.761Z,0
2023-05-14T22:00:24.796Z,0
2023-05-14T22:23:22.802Z,0
2023-05-14T22:29:42.761Z,0
2023-05-14T22:36:05.756Z,0
2023-05-14T22:42:25.836Z,0
2023-05-14T22:48:48.761Z,0
2023-05-14T22:55:08.776Z,0
2023-05-14T23:01:31.809Z,0
2023-05-14T23:07:51.772Z,0
2023-05-14T23:14:14.783Z,0
2023-05-14T23:20:34.815Z,0
2023-05-14T23:26:57.778Z,0
2023-05-14T23:33:17.785Z,0
2023-05-14T23:39:40.810Z,0
2023-05-14T23:46:00.836Z,0
2023-05-14T23:52:23.782Z,0
2023-05-14T23:58:43.778Z,0
